Time;durP1;ratioP1;P1;durP2;ratioP2;P2;SDS_P1;SDS_P2;PMS_P1;PMS_P2;Temp;Humidity;BMP_temperature;BMP_pressure;BME280_temperature;BME280_humidity;BME280_pressure;Samples;Min_cycle;Max_cycle;Signal;HPM_P1;HPM_P2
2022/09/24 00:01:25;;;;;;;2.10;1.83;;;12.80;86.90;;;;;;5008345;28;20044;-67
2022/09/24 00:03:54;;;;;;;2.55;2.03;;;12.80;87.00;;;;;;5015905;28;20079;-68
2022/09/24 00:06:20;;;;;;;2.83;2.03;;;12.80;87.40;;;;;;5009330;28;20057;-67
2022/09/24 00:08:48;;;;;;;2.50;1.77;;;12.80;87.20;;;;;;5013677;28;20026;-67
2022/09/24 00:11:15;;;;;;;2.35;2.15;;;12.80;87.20;;;;;;5009156;28;20052;-68
2022/09/24 00:13:41;;;;;;;3.30;2.17;;;12.80;87.40;;;;;;5011644;28;20861;-67
2022/09/24 00:16:10;;;;;;;2.35;2.15;;;12.80;87.50;;;;;;5012782;28;20034;-67
2022/09/24 00:18:36;;;;;;;2.13;1.92;;;12.80;87.70;;;;;;5013518;28;20034;-68
2022/09/24 00:21:18;;;;;;;3.95;2.38;;;12.80;87.70;;;;;;5010173;28;20041;-67
2022/09/24 00:23:48;;;;;;;2.50;1.85;;;12.80;87.70;;;;;;5005873;28;20095;-68
2022/09/24 00:28:59;;;;;;;1.95;1.85;;;12.80;87.40;;;;;;5011565;28;20034;-67
2022/09/24 00:31:25;;;;;;;7.53;2.70;;;12.80;87.70;;;;;;5014881;28;20096;-68
2022/09/24 00:33:52;;;;;;;2.95;1.92;;;12.80;87.90;;;;;;5012925;28;20531;-67
2022/09/24 00:36:21;;;;;;;2.72;2.38;;;12.80;87.30;;;;;;5011810;28;20037;-67
2022/09/24 00:38:50;;;;;;;2.33;2.05;;;12.80;87.10;;;;;;5017130;28;20025;-67
2022/09/24 00:41:16;;;;;;;4.40;2.42;;;12.80;87.60;;;;;;5007565;28;20498;-67
2022/09/24 00:43:42;;;;;;;7.30;1.95;;;12.80;87.30;;;;;;5005035;28;20568;-67
2022/09/24 00:46:28;;;;;;;2.75;2.10;;;12.80;87.30;;;;;;5009904;28;20061;-67
2022/09/24 00:49:18;;;;;;;2.72;2.33;;;12.80;87.10;;;;;;5013434;28;20032;-68
2022/09/24 00:51:50;;;;;;;2.65;2.20;;;12.90;87.10;;;;;;5007912;28;20025;-67
2022/09/24 00:54:21;;;;;;;4.63;2.20;;;12.80;86.80;;;;;;5009228;28;20033;-67
2022/09/24 00:56:49;;;;;;;6.78;2.65;;;12.90;86.70;;;;;;5007023;28;20477;-67
2022/09/24 00:59:18;;;;;;;3.42;2.55;;;12.90;86.70;;;;;;5007892;28;20108;-67
2022/09/24 01:01:45;;;;;;;5.15;2.67;;;12.90;86.40;;;;;;5016885;28;20676;-67
2022/09/24 01:04:13;;;;;;;3.30;2.30;;;12.90;86.20;;;;;;5009289;28;20037;-68
2022/09/24 01:06:39;;;;;;;4.22;2.78;;;12.90;86.30;;;;;;5008894;28;20107;-67
2022/09/24 01:09:05;;;;;;;3.58;2.40;;;12.90;86.60;;;;;;5005878;28;20800;-68
2022/09/24 01:11:48;;;;;;;4.15;2.50;;;12.90;86.60;;;;;;5010921;28;20053;-67
2022/09/24 01:14:38;;;;;;;5.28;2.55;;;12.90;86.80;;;;;;5006847;28;20092;-68
2022/09/24 01:17:04;;;;;;;5.38;2.33;;;13.00;86.90;;;;;;5007553;28;20948;-68
2022/09/24 01:19:59;;;;;;;2.63;2.38;;;13.00;87.10;;;;;;5007138;28;20038;-67
2022/09/24 01:22:40;;;;;;;3.88;2.80;;;13.00;87.60;;;;;;5006088;28;20095;-67
2022/09/24 01:25:30;;;;;;;3.10;2.38;;;13.00;88.10;;;;;;5008773;28;20034;-67
2022/09/24 01:28:22;;;;;;;4.72;2.92;;;12.90;87.60;;;;;;5006216;28;20034;-67
2022/09/24 01:30:54;;;;;;;2.88;2.40;;;12.90;87.30;;;;;;5002395;28;20025;-68
2022/09/24 01:33:24;;;;;;;3.40;2.53;;;13.00;86.90;;;;;;5012367;28;20025;-67
2022/09/24 01:35:54;;;;;;;2.72;2.33;;;13.00;86.70;;;;;;5015339;28;20207;-67
2022/09/24 01:38:33;;;;;;;6.40;2.80;;;12.90;87.10;;;;;;5008149;28;20137;-67
2022/09/24 01:41:02;;;;;;;3.17;2.35;;;13.00;87.10;;;;;;5007155;28;20052;-67
2022/09/24 01:43:29;;;;;;;3.63;2.40;;;13.00;87.20;;;;;;5016429;28;20037;-67
2022/09/24 01:46:01;;;;;;;3.85;3.00;;;13.00;87.30;;;;;;5017466;28;20052;-67
2022/09/24 01:48:27;;;;;;;4.18;2.50;;;12.90;87.40;;;;;;5008423;28;20030;-68
2022/09/24 01:51:08;;;;;;;3.00;2.53;;;12.90;87.60;;;;;;5008355;28;20033;-67
2022/09/24 01:53:42;;;;;;;3.60;2.55;;;13.00;88.00;;;;;;5014031;28;20088;-67
2022/09/24 01:56:17;;;;;;;4.97;3.33;;;13.00;88.20;;;;;;5007245;28;20694;-67
2022/09/24 01:59:03;;;;;;;4.23;3.00;;;13.00;88.40;;;;;;5004075;28;20096;-67
2022/09/24 02:01:37;;;;;;;3.25;2.45;;;13.00;88.50;;;;;;5011202;28;20044;-67
2022/09/24 02:04:18;;;;;;;3.40;3.10;;;13.00;88.30;;;;;;5008612;28;20033;-67
2022/09/24 02:07:04;;;;;;;3.85;2.97;;;13.00;89.20;;;;;;5010802;28;20039;-67
2022/09/24 02:09:41;;;;;;;5.18;3.10;;;13.00;88.50;;;;;;5009025;28;20053;-67
2022/09/24 02:12:33;;;;;;;3.90;2.75;;;13.00;88.60;;;;;;5007865;28;20040;-67
2022/09/24 02:15:06;;;;;;;6.75;3.60;;;13.00;88.70;;;;;;5009596;28;20084;-67
2022/09/24 02:17:35;;;;;;;4.43;3.17;;;13.00;88.60;;;;;;5005879;28;20136;-67
2022/09/24 02:20:04;;;;;;;3.85;2.83;;;13.00;88.60;;;;;;5014734;28;20091;-67
2022/09/24 02:22:31;;;;;;;4.05;3.08;;;13.00;88.80;;;;;;5021259;28;20025;-67
2022/09/24 02:25:00;;;;;;;4.35;3.50;;;13.00;88.80;;;;;;5014283;28;20329;-67
2022/09/24 02:27:29;;;;;;;4.05;3.40;;;13.00;88.60;;;;;;5017851;28;20070;-67
2022/09/24 02:29:57;;;;;;;5.13;3.33;;;13.00;89.00;;;;;;5012300;28;20033;-67
2022/09/24 02:32:26;;;;;;;3.95;2.97;;;13.00;88.30;;;;;;5014520;28;20040;-67
2022/09/24 02:34:56;;;;;;;4.82;3.17;;;13.00;88.40;;;;;;5011145;28;20050;-67
2022/09/24 02:37:24;;;;;;;4.28;3.17;;;13.00;88.50;;;;;;5009170;28;20681;-68
2022/09/24 02:39:50;;;;;;;4.47;3.13;;;13.00;88.60;;;;;;5013388;28;20033;-67
2022/09/24 02:42:17;;;;;;;5.53;3.67;;;13.00;88.70;;;;;;5018136;28;20124;-67
2022/09/24 02:44:43;;;;;;;3.92;2.70;;;13.00;88.40;;;;;;5005400;28;20038;-67
2022/09/24 02:47:09;;;;;;;5.78;3.45;;;13.00;88.60;;;;;;5019500;28;20022;-68
2022/09/24 02:49:34;;;;;;;4.10;3.53;;;13.00;89.20;;;;;;5009524;28;20508;-67
2022/09/24 02:52:01;;;;;;;4.93;3.28;;;13.00;89.10;;;;;;5011371;28;20098;-67
2022/09/24 02:54:26;;;;;;;3.95;3.30;;;13.00;88.80;;;;;;5010172;28;20030;-67
2022/09/24 02:56:52;;;;;;;4.20;3.45;;;13.00;89.20;;;;;;5013619;28;20037;-67
2022/09/24 02:59:18;;;;;;;3.55;3.17;;;13.00;89.00;;;;;;5013615;28;20653;-66
2022/09/24 03:01:45;;;;;;;5.25;4.18;;;13.00;88.90;;;;;;5012152;28;20029;-64
2022/09/24 03:04:11;;;;;;;6.68;3.92;;;13.00;89.10;;;;;;5010462;28;20040;-64
2022/09/24 03:06:37;;;;;;;3.80;3.05;;;13.00;88.90;;;;;;5015770;28;20036;-64
2022/09/24 03:09:03;;;;;;;5.32;3.60;;;13.00;89.10;;;;;;5009167;28;20042;-64
2022/09/24 03:11:31;;;;;;;4.32;3.42;;;13.00;89.30;;;;;;5005769;28;20040;-64
2022/09/24 03:13:58;;;;;;;5.50;3.40;;;13.00;89.20;;;;;;5009190;28;20036;-64
2022/09/24 03:16:25;;;;;;;5.53;3.78;;;13.00;89.40;;;;;;5013846;28;20058;-64
2022/09/24 03:18:51;;;;;;;6.00;3.80;;;13.00;89.20;;;;;;5008374;28;20112;-63
2022/09/24 03:21:19;;;;;;;5.15;3.50;;;13.00;89.00;;;;;;5005009;28;20100;-64
2022/09/24 03:23:45;;;;;;;5.25;3.78;;;13.00;89.40;;;;;;5008560;28;20042;-64
2022/09/24 03:26:12;;;;;;;4.05;3.42;;;13.00;89.50;;;;;;5013354;28;20040;-64
2022/09/24 03:28:38;;;;;;;5.88;3.92;;;13.00;89.60;;;;;;5010136;28;20025;-64
2022/09/24 03:31:05;;;;;;;4.90;3.72;;;12.90;89.70;;;;;;5003654;28;20038;-66
2022/09/24 03:33:33;;;;;;;5.15;3.50;;;12.90;89.60;;;;;;5007226;28;20037;-63
2022/09/24 03:36:18;;;;;;;4.68;3.58;;;12.90;89.30;;;;;;5012016;28;20033;-64
2022/09/24 03:38:45;;;;;;;3.58;3.13;;;12.90;89.10;;;;;;5007511;28;20034;-64
2022/09/24 03:41:12;;;;;;;5.03;4.00;;;12.90;89.30;;;;;;5004714;28;20034;-63
2022/09/24 03:43:38;;;;;;;5.63;3.75;;;12.90;89.60;;;;;;5005943;28;20029;-64
2022/09/24 03:46:05;;;;;;;7.13;4.20;;;12.90;89.90;;;;;;5012580;28;20056;-64
2022/09/24 03:48:33;;;;;;;7.20;4.25;;;12.90;90.30;;;;;;5011579;28;20119;-64
2022/09/24 03:51:10;;;;;;;7.07;3.90;;;12.90;90.50;;;;;;5005345;28;20044;-64
2022/09/24 03:53:37;;;;;;;4.90;3.58;;;12.90;90.50;;;;;;5003920;28;20136;-64
2022/09/24 03:56:05;;;;;;;6.00;4.00;;;12.90;90.20;;;;;;5006124;28;20037;-63
2022/09/24 03:58:36;;;;;;;5.03;3.72;;;12.90;90.10;;;;;;5012398;28;20111;-63
2022/09/24 04:01:02;;;;;;;4.00;3.58;;;12.90;90.20;;;;;;5004434;28;20033;-64
2022/09/24 04:03:28;;;;;;;4.00;3.50;;;12.90;90.20;;;;;;5010861;28;20500;-64
2022/09/24 04:05:54;;;;;;;4.63;3.63;;;12.90;90.30;;;;;;5012706;28;20037;-67
2022/09/24 04:08:21;;;;;;;4.50;3.80;;;12.90;90.30;;;;;;5009101;28;20045;-67
2022/09/24 04:10:47;;;;;;;4.93;3.50;;;12.90;90.30;;;;;;5008632;28;20033;-69
2022/09/24 04:13:14;;;;;;;5.15;3.97;;;12.80;90.50;;;;;;4995949;28;20129;-67
2022/09/24 04:15:40;;;;;;;8.30;3.88;;;12.80;90.50;;;;;;5001440;28;20692;-68
2022/09/24 04:18:06;;;;;;;5.53;3.72;;;12.80;90.40;;;;;;5013345;28;20092;-67
2022/09/24 04:20:33;;;;;;;4.57;4.03;;;12.80;90.30;;;;;;5007728;28;20030;-67
2022/09/24 04:22:59;;;;;;;7.22;4.55;;;12.80;90.60;;;;;;5002973;28;20033;-68
2022/09/24 04:25:29;;;;;;;4.95;3.72;;;12.70;90.40;;;;;;5005750;28;20029;-68
2022/09/24 04:28:00;;;;;;;8.70;5.03;;;12.70;90.40;;;;;;5007213;28;20162;-67
2022/09/24 04:30:27;;;;;;;7.95;5.05;;;12.60;90.50;;;;;;5007239;28;20030;-67
2022/09/24 04:32:53;;;;;;;5.55;4.45;;;12.60;90.60;;;;;;5013873;28;20026;-68
2022/09/24 04:35:21;;;;;;;6.53;5.53;;;12.50;90.70;;;;;;4999464;28;20477;-68
2022/09/24 04:37:47;;;;;;;7.93;6.15;;;12.50;90.80;;;;;;5002624;28;20034;-67
2022/09/24 04:40:14;;;;;;;9.95;6.60;;;12.50;90.70;;;;;;5011971;28;20047;-68
2022/09/24 04:42:40;;;;;;;8.52;6.63;;;12.50;90.50;;;;;;5001396;28;20117;-68
2022/09/24 04:45:07;;;;;;;7.18;5.55;;;12.40;90.50;;;;;;5000886;28;20180;-67
2022/09/24 04:47:34;;;;;;;7.95;5.07;;;12.30;90.60;;;;;;5006757;28;20032;-67
2022/09/24 04:50:01;;;;;;;6.50;4.47;;;12.30;90.60;;;;;;5011571;28;20033;-67
2022/09/24 04:52:30;;;;;;;6.75;5.00;;;12.20;90.70;;;;;;5009074;28;20025;-67
2022/09/24 04:54:56;;;;;;;5.75;4.35;;;12.10;90.80;;;;;;5007545;28;20041;-67
2022/09/24 04:57:22;;;;;;;6.03;4.30;;;12.10;91.10;;;;;;5004693;28;20026;-67
2022/09/24 04:59:48;;;;;;;6.28;4.43;;;12.10;91.20;;;;;;5011695;28;20092;-68
2022/09/24 05:02:15;;;;;;;10.07;4.95;;;12.00;91.30;;;;;;5007825;28;20037;-68
2022/09/24 05:04:42;;;;;;;5.38;4.63;;;12.10;91.50;;;;;;5007961;28;20492;-67
2022/09/24 05:07:08;;;;;;;6.72;4.60;;;12.10;91.50;;;;;;5025540;28;20044;-68
2022/09/24 05:09:34;;;;;;;7.53;4.50;;;12.10;91.60;;;;;;5011327;28;20040;-67
2022/09/24 05:12:01;;;;;;;6.28;4.32;;;12.20;91.80;;;;;;5009989;28;20091;-67
2022/09/24 05:14:27;;;;;;;9.20;4.50;;;12.20;91.80;;;;;;4998585;28;20028;-67
2022/09/24 05:16:52;;;;;;;5.28;4.68;;;12.20;91.70;;;;;;5008540;28;20049;-67
2022/09/24 05:19:19;;;;;;;6.93;5.25;;;12.20;91.70;;;;;;5016410;28;20064;-67
2022/09/24 05:21:45;;;;;;;6.70;4.47;;;12.20;91.70;;;;;;5001864;28;20031;-67
2022/09/24 05:24:11;;;;;;;7.22;4.70;;;12.20;91.70;;;;;;5007827;28;20040;-67
2022/09/24 05:29:21;;;;;;;8.57;5.28;;;12.10;91.60;;;;;;5013608;28;20049;-67
2022/09/24 05:31:47;;;;;;;7.63;5.40;;;12.10;91.40;;;;;;5001074;28;20266;-67
2022/09/24 05:34:13;;;;;;;7.60;5.63;;;12.10;91.40;;;;;;5002679;28;20042;-67
2022/09/24 05:36:41;;;;;;;13.27;6.93;;;12.10;91.50;;;;;;5008610;28;20041;-68
2022/09/24 05:39:08;;;;;;;10.98;7.50;;;12.10;91.60;;;;;;5007487;28;20409;-68
2022/09/24 05:41:34;;;;;;;11.77;7.25;;;12.10;91.60;;;;;;5012326;28;20470;-67
2022/09/24 05:44:00;;;;;;;14.82;8.73;;;12.10;91.70;;;;;;5010318;28;20095;-67
2022/09/24 05:46:26;;;;;;;16.90;9.60;;;12.10;91.90;;;;;;5010069;28;20821;-67
2022/09/24 05:48:52;;;;;;;14.75;9.45;;;12.10;92.00;;;;;;5013222;28;20040;-68
2022/09/24 05:51:17;;;;;;;16.73;9.95;;;12.10;92.10;;;;;;5014567;28;20030;-68
2022/09/24 05:53:43;;;;;;;17.10;9.25;;;12.10;92.10;;;;;;5007136;28;20398;-68
2022/09/24 05:56:09;;;;;;;13.85;8.18;;;12.20;92.10;;;;;;5005612;28;20091;-67
2022/09/24 05:58:35;;;;;;;9.50;6.80;;;12.10;92.20;;;;;;5003984;28;20108;-71
2022/09/24 06:01:01;;;;;;;11.60;6.85;;;12.10;91.80;;;;;;5006854;28;20040;-67
2022/09/24 06:03:28;;;;;;;10.68;6.85;;;12.20;92.00;;;;;;5005085;28;20717;-68
2022/09/24 06:06:03;;;;;;;11.38;6.18;;;12.20;91.90;;;;;;5011856;28;20038;-68
2022/09/24 06:08:31;;;;;;;7.55;5.85;;;12.30;91.90;;;;;;4997800;28;20029;-68
2022/09/24 06:10:58;;;;;;;8.80;6.88;;;12.30;91.80;;;;;;5012663;28;20459;-70
2022/09/24 06:13:24;;;;;;;9.38;6.22;;;12.30;91.60;;;;;;4994901;28;20402;-68
2022/09/24 06:15:50;;;;;;;8.05;5.88;;;12.40;91.60;;;;;;4995379;28;20040;-71
2022/09/24 06:18:16;;;;;;;7.20;5.90;;;12.40;91.40;;;;;;5008697;28;20037;-68
2022/09/24 06:20:43;;;;;;;9.68;6.20;;;12.50;91.20;;;;;;5009626;28;20825;-70
2022/09/24 06:23:09;;;;;;;7.47;5.50;;;12.60;90.70;;;;;;5010735;28;20092;-70
2022/09/24 06:25:35;;;;;;;10.82;6.95;;;12.60;91.00;;;;;;5005280;28;20080;-70
2022/09/24 06:28:02;;;;;;;10.48;6.82;;;12.60;90.90;;;;;;5006203;28;20489;-67
2022/09/24 06:30:38;;;;;;;7.72;6.13;;;12.70;90.80;;;;;;5009104;28;20025;-69
2022/09/24 06:33:06;;;;;;;8.17;5.77;;;12.80;91.00;;;;;;4998383;28;20057;-68
2022/09/24 06:35:35;;;;;;;7.72;6.65;;;12.90;91.00;;;;;;5004293;28;20036;-68
2022/09/24 06:38:03;;;;;;;9.27;6.70;;;12.90;91.20;;;;;;5007811;28;20083;-68
2022/09/24 06:40:29;;;;;;;7.97;6.15;;;13.00;91.30;;;;;;5005909;28;20041;-72
2022/09/24 06:42:55;;;;;;;8.15;5.85;;;13.10;91.30;;;;;;5011991;28;20045;-70
2022/09/24 06:45:21;;;;;;;11.27;6.88;;;13.10;91.20;;;;;;5005729;28;20041;-69
2022/09/24 06:47:54;;;;;;;10.90;6.40;;;13.20;90.90;;;;;;5013669;28;20030;-70
2022/09/24 06:50:21;;;;;;;9.00;5.88;;;13.30;90.90;;;;;;5007618;28;20025;-70
2022/09/24 06:52:47;;;;;;;8.23;6.05;;;13.30;90.80;;;;;;5003937;28;20018;-69
2022/09/24 06:55:14;;;;;;;9.35;6.63;;;13.40;91.00;;;;;;4998032;28;20445;-70
2022/09/24 06:57:40;;;;;;;6.50;5.63;;;13.40;90.90;;;;;;5013000;28;20040;-69
2022/09/24 07:00:06;;;;;;;8.88;5.95;;;13.50;90.80;;;;;;5014952;28;20041;-72
2022/09/24 07:02:32;;;;;;;8.95;6.65;;;13.50;90.70;;;;;;5008328;28;21069;-68
2022/09/24 07:04:58;;;;;;;8.43;5.57;;;13.60;90.90;;;;;;5004529;28;20026;-68
2022/09/24 07:07:31;;;;;;;12.80;7.22;;;13.60;90.80;;;;;;5003705;28;20212;-68
2022/09/24 07:10:00;;;;;;;8.70;6.97;;;13.70;90.60;;;;;;5006120;28;20033;-68
2022/09/24 07:12:28;;;;;;;7.65;6.40;;;13.80;90.10;;;;;;5009701;28;20490;-68
2022/09/24 07:14:54;;;;;;;8.45;6.50;;;13.80;90.00;;;;;;5003231;28;20025;-68
2022/09/24 07:17:19;;;;;;;7.40;5.93;;;13.90;89.70;;;;;;5008585;28;20037;-68
2022/09/24 07:19:45;;;;;;;7.22;5.53;;;13.90;89.60;;;;;;5013864;28;20022;-68
2022/09/24 07:22:11;;;;;;;7.35;5.63;;;13.90;90.00;;;;;;5006744;28;20030;-68
2022/09/24 07:24:36;;;;;;;9.48;6.03;;;14.00;89.90;;;;;;5004958;28;20034;-68
2022/09/24 07:27:04;;;;;;;7.65;6.32;;;14.00;89.40;;;;;;5007843;28;20055;-67
2022/09/24 07:29:30;;;;;;;8.13;5.93;;;14.00;88.30;;;;;;5011801;28;20112;-67
2022/09/24 07:31:56;;;;;;;6.32;5.55;;;14.10;88.20;;;;;;5010047;28;20041;-67
2022/09/24 07:34:22;;;;;;;9.98;5.25;;;14.10;88.20;;;;;;5004468;28;20038;-67
2022/09/24 07:36:47;;;;;;;7.72;5.85;;;14.20;88.10;;;;;;5004933;28;20445;-68
2022/09/24 07:39:13;;;;;;;7.60;5.70;;;14.30;87.70;;;;;;5007506;28;20049;-68
2022/09/24 07:41:41;;;;;;;8.40;5.65;;;14.30;87.90;;;;;;5012703;28;20058;-67
2022/09/24 07:44:07;;;;;;;10.02;6.18;;;14.40;88.40;;;;;;5005695;28;20045;-69
2022/09/24 07:46:34;;;;;;;6.32;5.05;;;14.40;88.10;;;;;;5003510;28;20057;-68
2022/09/24 07:48:59;;;;;;;6.75;5.40;;;14.50;87.40;;;;;;5006572;28;20049;-68
2022/09/24 07:51:27;;;;;;;7.53;5.28;;;14.50;87.30;;;;;;5008536;28;20030;-68
2022/09/24 07:53:54;;;;;;;8.32;6.05;;;14.60;88.10;;;;;;5003608;28;20133;-64
2022/09/24 07:56:20;;;;;;;10.68;6.28;;;14.60;87.30;;;;;;5000458;28;20095;-72
2022/09/24 07:58:52;;;;;;;7.75;5.18;;;14.60;86.60;;;;;;5009463;28;20030;-68
2022/09/24 08:01:19;;;;;;;7.78;5.15;;;14.60;86.60;;;;;;5010873;28;20029;-68
2022/09/24 08:03:45;;;;;;;8.43;5.40;;;14.70;86.80;;;;;;5010509;28;20029;-69
2022/09/24 08:06:11;;;;;;;10.70;5.68;;;14.60;86.20;;;;;;5002884;28;20053;-68
2022/09/24 08:08:37;;;;;;;6.90;5.45;;;14.60;86.30;;;;;;5003706;28;20040;-68
2022/09/24 08:11:05;;;;;;;8.82;5.82;;;14.60;86.30;;;;;;5013451;28;20040;-67
2022/09/24 08:13:32;;;;;;;5.93;5.00;;;14.70;86.20;;;;;;5007308;28;20068;-68
2022/09/24 08:15:59;;;;;;;7.22;5.45;;;14.70;86.50;;;;;;5006572;28;20087;-68
2022/09/24 08:18:25;;;;;;;8.85;5.88;;;14.80;86.80;;;;;;5010521;28;20029;-68
2022/09/24 08:20:52;;;;;;;8.68;6.32;;;14.80;86.00;;;;;;5008373;28;20025;-68
2022/09/24 08:23:19;;;;;;;8.85;6.30;;;14.90;85.20;;;;;;5012427;28;20037;-68
2022/09/24 08:25:46;;;;;;;9.38;6.40;;;14.90;84.50;;;;;;5008972;28;20050;-70
2022/09/24 08:28:12;;;;;;;6.95;5.43;;;14.90;84.40;;;;;;5004859;28;20525;-67
2022/09/24 08:30:39;;;;;;;9.10;6.30;;;14.90;84.70;;;;;;5010074;28;20117;-67
2022/09/24 08:33:06;;;;;;;11.18;7.10;;;14.90;85.20;;;;;;5006230;28;20440;-67
2022/09/24 08:35:33;;;;;;;10.98;6.03;;;15.00;85.70;;;;;;5003280;28;20484;-66
2022/09/24 08:38:00;;;;;;;9.65;5.95;;;15.10;85.70;;;;;;5009828;28;20120;-67
2022/09/24 08:40:32;;;;;;;8.13;5.78;;;15.10;85.10;;;;;;5013835;28;20041;-67
2022/09/24 08:43:18;;;;;;;8.02;5.97;;;15.10;84.40;;;;;;5006078;28;20033;-67
2022/09/24 08:48:39;;;;;;;6.45;5.50;;;15.20;84.10;;;;;;5006799;28;20353;-67
2022/09/24 08:51:16;;;;;;;7.50;5.68;;;15.20;84.50;;;;;;5009217;28;20218;-67
2022/09/24 08:54:00;;;;;;;7.50;5.38;;;15.20;83.50;;;;;;5004428;28;20030;-68
2022/09/24 08:56:31;;;;;;;5.93;4.93;;;15.30;84.20;;;;;;5001556;28;20405;-67
2022/09/24 08:58:58;;;;;;;6.82;4.85;;;15.40;85.10;;;;;;5009509;28;20482;-67
2022/09/24 09:01:23;;;;;;;7.95;5.65;;;15.50;84.60;;;;;;5008587;28;20030;-67
2022/09/24 09:04:31;;;;;;;6.22;5.00;;;15.60;83.90;;;;;;5009647;28;20048;-66
2022/09/24 09:07:18;;;;;;;8.95;5.55;;;15.60;83.30;;;;;;4996214;28;20046;-67
2022/09/24 09:09:54;;;;;;;6.53;4.68;;;15.70;82.60;;;;;;5004886;28;20048;-67
2022/09/24 09:12:33;;;;;;;5.97;5.25;;;15.80;82.60;;;;;;5007073;28;20137;-68
2022/09/24 09:15:21;;;;;;;7.22;5.25;;;15.90;83.70;;;;;;5005328;28;20057;-68
2022/09/24 09:18:08;;;;;;;7.57;6.05;;;15.90;83.20;;;;;;5015104;28;20141;-67
2022/09/24 09:20:42;;;;;;;9.23;6.78;;;16.00;82.70;;;;;;5002919;28;20141;-67
2022/09/24 09:23:46;;;;;;;9.82;5.25;;;16.10;82.30;;;;;;5007841;28;20033;-67
2022/09/24 09:26:12;;;;;;;7.90;6.10;;;16.10;82.30;;;;;;4999930;28;20069;-66
2022/09/24 09:28:38;;;;;;;6.38;5.00;;;16.10;81.30;;;;;;5004982;28;20117;-67
2022/09/24 09:31:18;;;;;;;8.40;6.30;;;16.10;80.70;;;;;;5007298;28;20041;-67
2022/09/24 09:34:05;;;;;;;7.53;4.85;;;16.20;81.60;;;;;;5008389;28;20069;-67
2022/09/24 09:37:09;;;;;;;6.22;5.00;;;16.20;80.50;;;;;;5013770;28;20040;-66
2022/09/24 09:39:53;;;;;;;7.68;5.68;;;16.20;79.90;;;;;;5000889;28;20516;-68
2022/09/24 09:42:34;;;;;;;7.47;5.28;;;16.20;81.10;;;;;;5009439;28;20049;-68
2022/09/24 09:45:36;;;;;;;5.68;4.70;;;16.20;81.90;;;;;;5009354;28;20046;-68
2022/09/24 09:48:03;;;;;;;6.93;4.47;;;16.20;81.50;;;;;;4997933;28;20049;-69
2022/09/24 09:50:49;;;;;;;7.97;5.03;;;16.20;83.10;;;;;;5006331;28;20033;-69
2022/09/24 09:53:25;;;;;;;;;;;16.30;83.30;;;;;;5007902;28;20046;-69
2022/09/24 09:56:03;;;;;;;7.63;5.32;;;16.20;82.30;;;;;;5010820;28;19914;-69
2022/09/24 09:58:34;;;;;;;7.40;5.32;;;16.20;80.90;;;;;;4997730;28;20036;-69
2022/09/24 10:01:05;;;;;;;9.30;6.95;;;16.20;80.60;;;;;;5005268;28;20436;-69
2022/09/24 10:03:51;;;;;;;6.65;5.60;;;16.20;80.70;;;;;;5010928;28;20032;-74
2022/09/24 10:06:31;;;;;;;7.43;5.53;;;16.20;81.10;;;;;;5000827;28;20045;-68
2022/09/24 10:09:20;;;;;;;9.43;6.82;;;16.30;81.80;;;;;;5000279;28;20681;-69
2022/09/24 10:11:47;;;;;;;10.45;6.05;;;16.30;80.80;;;;;;5008392;28;20040;-69
2022/09/24 10:14:17;;;;;;;9.45;5.60;;;16.30;80.80;;;;;;5007357;28;20036;-69
2022/09/24 10:16:45;;;;;;;8.73;6.43;;;16.30;80.70;;;;;;5008408;28;20033;-69
2022/09/24 10:19:27;;;;;;;7.88;5.55;;;16.30;79.00;;;;;;5001118;28;20034;-68
2022/09/24 10:21:56;;;;;;;6.97;4.82;;;16.30;80.10;;;;;;5002594;28;20073;-69
2022/09/24 10:24:27;;;;;;;7.15;5.53;;;16.30;81.30;;;;;;5006325;28;20030;-69
2022/09/24 10:26:53;;;;;;;7.03;5.47;;;16.30;81.40;;;;;;5000838;28;20502;-72
2022/09/24 10:32:18;;;;;;;6.38;5.40;;;16.40;83.50;;;;;;5012146;28;20138;-71
2022/09/24 10:35:01;;;;;;;7.30;5.53;;;16.40;82.80;;;;;;5012115;28;20083;-69
2022/09/24 10:37:28;;;;;;;7.25;5.88;;;16.50;83.40;;;;;;5013857;28;20121;-70
2022/09/24 10:40:02;;;;;;;9.30;5.40;;;16.50;80.90;;;;;;5009236;28;20041;-70
2022/09/24 10:42:29;;;;;;;7.57;5.00;;;16.60;79.90;;;;;;5013123;28;20037;-70
2022/09/24 10:44:59;;;;;;;7.47;5.07;;;16.60;82.00;;;;;;5010242;28;20052;-70
2022/09/24 10:47:52;;;;;;;7.40;5.60;;;16.70;81.70;;;;;;5007804;28;20124;-70
2022/09/24 10:50:43;;;;;;;11.95;6.72;;;16.80;82.00;;;;;;5012403;28;20021;-70
2022/09/24 10:53:38;;;;;;;8.77;5.97;;;16.80;80.00;;;;;;5009365;28;20037;-70
2022/09/24 10:56:32;;;;;;;8.27;5.95;;;16.80;81.10;;;;;;5016646;28;20052;-69
2022/09/24 10:59:41;;;;;;;11.68;6.35;;;17.00;82.10;;;;;;4996247;28;20038;-69
2022/09/24 11:02:39;;;;;;;6.57;5.90;;;17.20;81.50;;;;;;5010434;28;20037;-69
2022/09/24 11:05:30;;;;;;;10.07;5.50;;;17.30;81.90;;;;;;5006910;28;20045;-69
2022/09/24 11:08:24;;;;;;;8.50;5.95;;;17.40;81.10;;;;;;5002270;28;20747;-69
2022/09/24 11:11:05;;;;;;;7.07;5.72;;;17.50;80.20;;;;;;5001746;28;20029;-69
2022/09/24 11:13:57;;;;;;;9.18;6.28;;;17.70;79.40;;;;;;5010007;28;20025;-70
2022/09/24 11:16:37;;;;;;;8.23;5.13;;;17.80;78.40;;;;;;5002534;28;20092;-69
2022/09/24 11:19:42;;;;;;;5.93;4.85;;;18.00;79.30;;;;;;4998480;28;20049;-70
2022/09/24 11:22:30;;;;;;;7.53;5.95;;;18.00;79.60;;;;;;5009823;28;20087;-69
2022/09/24 11:25:19;;;;;;;8.38;5.57;;;18.10;80.10;;;;;;4998240;28;20406;-69
2022/09/24 11:28:18;;;;;;;7.65;5.40;;;18.10;79.10;;;;;;5002773;28;20034;-69
2022/09/24 11:30:50;;;;;;;6.05;5.20;;;18.00;79.50;;;;;;5026035;28;20029;-68
2022/09/24 11:33:33;;;;;;;8.13;5.13;;;18.00;80.80;;;;;;5002686;28;20037;-69
2022/09/24 11:36:32;;;;;;;7.40;4.10;;;18.00;81.30;;;;;;4998828;28;20104;-73
2022/09/24 11:39:03;;;;;;;6.20;4.93;;;17.90;80.70;;;;;;5006736;28;20029;-70
2022/09/24 11:41:59;;;;;;;5.95;4.60;;;18.00;80.40;;;;;;5007727;28;20037;-70
2022/09/24 11:44:46;;;;;;;5.70;4.93;;;18.10;81.10;;;;;;5012743;28;20034;-72
2022/09/24 11:47:25;;;;;;;7.65;5.72;;;18.10;80.80;;;;;;5012241;28;20041;-71
2022/09/24 11:50:03;;;;;;;9.10;4.97;;;18.20;80.50;;;;;;5003999;28;20033;-71
2022/09/24 11:52:39;;;;;;;7.43;5.60;;;18.20;80.70;;;;;;5004973;28;20763;-70
2022/09/24 11:55:33;;;;;;;7.55;5.38;;;18.30;79.40;;;;;;5008248;28;20041;-70
2022/09/24 11:58:22;;;;;;;6.50;4.65;;;18.30;77.90;;;;;;5006664;28;20061;-70
2022/09/24 12:00:54;;;;;;;6.28;4.38;;;18.30;78.00;;;;;;5003911;28;20477;-70
2022/09/24 12:03:25;;;;;;;5.65;4.85;;;18.40;79.30;;;;;;5008844;28;20071;-70
2022/09/24 12:05:59;;;;;;;6.05;4.50;;;18.40;78.20;;;;;;5007082;28;20065;-70
2022/09/24 12:08:35;;;;;;;5.18;3.85;;;18.40;78.50;;;;;;5011662;28;20030;-70
2022/09/24 12:11:15;;;;;;;5.65;4.03;;;18.50;79.00;;;;;;5006347;28;20079;-70
2022/09/24 12:13:58;;;;;;;4.72;4.03;;;18.50;79.60;;;;;;5010323;28;20095;-71
2022/09/24 12:16:27;;;;;;;8.60;4.75;;;18.50;79.30;;;;;;5009808;28;20129;-70
2022/09/24 12:19:22;;;;;;;8.45;4.47;;;18.50;76.50;;;;;;5000306;28;20046;-71
2022/09/24 12:21:51;;;;;;;5.47;3.80;;;18.60;74.90;;;;;;5009504;28;20040;-71
2022/09/24 12:24:36;;;;;;;4.40;3.83;;;18.60;76.50;;;;;;5009495;28;20137;-71
2022/09/24 12:27:19;;;;;;;5.25;4.25;;;18.60;77.40;;;;;;5008278;28;20034;-70
2022/09/24 12:33:24;;;;;;;7.50;4.30;;;18.60;78.00;;;;;;5004562;28;20044;-70
2022/09/24 12:36:00;;;;;;;6.43;4.90;;;18.60;77.20;;;;;;5011003;28;20108;-71
2022/09/24 12:38:35;;;;;;;7.63;4.60;;;18.60;77.00;;;;;;5003586;28;20057;-71
2022/09/24 12:41:14;;;;;;;4.93;4.30;;;18.50;77.20;;;;;;5006953;28;20565;-70
2022/09/24 12:43:46;;;;;;;5.63;4.53;;;18.50;77.00;;;;;;5008262;28;20116;-71
2022/09/24 12:46:43;;;;;;;5.15;4.05;;;18.50;76.70;;;;;;5007806;28;20033;-71
2022/09/24 12:49:24;;;;;;;;;;;18.50;76.30;;;;;;5007189;28;20069;-70
2022/09/24 12:51:52;;;;;;;6.40;4.30;;;18.60;76.40;;;;;;5003259;28;19912;-70
2022/09/24 12:54:29;;;;;;;5.35;4.00;;;18.70;76.10;;;;;;5007252;28;20481;-71
2022/09/24 12:57:21;;;;;;;6.45;4.53;;;18.70;76.10;;;;;;5008425;28;20037;-70
2022/09/24 12:59:58;;;;;;;5.18;4.20;;;18.80;77.50;;;;;;5000896;28;20057;-72
2022/09/24 13:02:42;;;;;;;5.50;4.10;;;18.80;73.40;;;;;;5007200;28;20385;-70
2022/09/24 13:05:26;;;;;;;6.20;3.58;;;18.90;73.90;;;;;;5004067;28;20037;-73
2022/09/24 13:07:59;;;;;;;6.45;4.35;;;18.80;75.20;;;;;;5013156;28;20030;-71
2022/09/24 13:10:35;;;;;;;6.68;4.70;;;18.80;76.00;;;;;;5012905;28;20045;-71
2022/09/24 13:13:03;;;;;;;5.78;4.20;;;18.80;76.20;;;;;;5004613;28;20064;-71
2022/09/24 13:15:38;;;;;;;4.80;4.18;;;18.80;77.10;;;;;;5006385;28;20034;-71
2022/09/24 13:18:09;;;;;;;7.63;5.97;;;18.80;75.90;;;;;;5003472;28;20033;-70
2022/09/24 13:20:40;;;;;;;9.30;5.70;;;18.80;76.40;;;;;;5031154;28;20119;-71
2022/09/24 13:23:12;;;;;;;4.75;3.90;;;18.80;77.00;;;;;;5011052;28;20041;-71
2022/09/24 13:25:38;;;;;;;8.35;4.88;;;18.80;74.60;;;;;;5007590;28;20025;-70
2022/09/24 13:28:54;;;;;;;4.80;3.60;;;18.80;75.20;;;;;;5011751;28;20589;-70